sensor_id;sensor_type;location;lat;lon;timestamp;P1;durP1;ratioP1;P2;durP2;ratioP2
77362;SDS011;66428;47.322;9.432;2023-06-24T00:00:26;9.00;;;4.85;;
77362;SDS011;66428;47.322;9.432;2023-06-24T00:02:55;5.75;;;4.28;;
77362;SDS011;66428;47.322;9.432;2023-06-24T00:05:29;5.57;;;4.07;;
77362;SDS011;66428;47.322;9.432;2023-06-24T00:08:00;6.28;;;4.53;;
77362;SDS011;66428;47.322;9.432;2023-06-24T00:10:29;7.13;;;4.22;;
77362;SDS011;66428;47.322;9.432;2023-06-24T00:13:00;9.82;;;4.68;;
77362;SDS011;66428;47.322;9.432;2023-06-24T00:15:28;7.68;;;4.55;;
77362;SDS011;66428;47.322;9.432;2023-06-24T00:17:56;5.88;;;4.00;;
77362;SDS011;66428;47.322;9.432;2023-06-24T00:20:34;7.25;;;4.40;;
77362;SDS011;66428;47.322;9.432;2023-06-24T00:23:02;7.32;;;4.43;;
77362;SDS011;66428;47.322;9.432;2023-06-24T00:25:32;7.40;;;4.40;;
77362;SDS011;66428;47.322;9.432;2023-06-24T00:28:02;6.38;;;3.97;;
77362;SDS011;66428;47.322;9.432;2023-06-24T00:30:30;5.25;;;3.97;;
77362;SDS011;66428;47.322;9.432;2023-06-24T00:32:58;6.45;;;4.30;;
77362;SDS011;66428;47.322;9.432;2023-06-24T00:35:29;7.15;;;4.32;;
77362;SDS011;66428;47.322;9.432;2023-06-24T00:37:58;6.70;;;4.05;;
77362;SDS011;66428;47.322;9.432;2023-06-24T00:40:26;6.10;;;3.88;;
77362;SDS011;66428;47.322;9.432;2023-06-24T00:42:53;7.13;;;5.43;;
77362;SDS011;66428;47.322;9.432;2023-06-24T00:45:21;7.90;;;4.43;;
77362;SDS011;66428;47.322;9.432;2023-06-24T00:47:49;6.75;;;4.32;;
77362;SDS011;66428;47.322;9.432;2023-06-24T00:50:18;7.32;;;4.38;;
77362;SDS011;66428;47.322;9.432;2023-06-24T00:52:45;6.22;;;4.13;;
77362;SDS011;66428;47.322;9.432;2023-06-24T00:55:17;8.20;;;4.30;;
77362;SDS011;66428;47.322;9.432;2023-06-24T00:57:47;7.95;;;4.90;;
77362;SDS011;66428;47.322;9.432;2023-06-24T01:00:17;5.88;;;3.88;;
77362;SDS011;66428;47.322;9.432;2023-06-24T01:02:46;6.50;;;4.20;;
77362;SDS011;66428;47.322;9.432;2023-06-24T01:05:15;6.15;;;3.67;;
77362;SDS011;66428;47.322;9.432;2023-06-24T01:07:42;9.35;;;4.70;;
77362;SDS011;66428;47.322;9.432;2023-06-24T01:10:13;5.88;;;3.95;;
77362;SDS011;66428;47.322;9.432;2023-06-24T01:12:43;6.15;;;4.07;;
77362;SDS011;66428;47.322;9.432;2023-06-24T01:15:11;6.38;;;4.00;;
77362;SDS011;66428;47.322;9.432;2023-06-24T01:17:43;6.55;;;4.65;;
77362;SDS011;66428;47.322;9.432;2023-06-24T01:20:15;5.50;;;3.90;;
77362;SDS011;66428;47.322;9.432;2023-06-24T01:22:51;6.53;;;4.50;;
77362;SDS011;66428;47.322;9.432;2023-06-24T01:25:33;6.43;;;4.15;;
77362;SDS011;66428;47.322;9.432;2023-06-24T01:28:10;7.05;;;4.43;;
77362;SDS011;66428;47.322;9.432;2023-06-24T01:30:49;6.65;;;4.40;;
77362;SDS011;66428;47.322;9.432;2023-06-24T01:33:23;6.63;;;3.75;;
77362;SDS011;66428;47.322;9.432;2023-06-24T01:35:55;6.40;;;4.13;;
77362;SDS011;66428;47.322;9.432;2023-06-24T01:38:31;5.22;;;4.13;;
77362;SDS011;66428;47.322;9.432;2023-06-24T01:41:03;7.05;;;4.15;;
77362;SDS011;66428;47.322;9.432;2023-06-24T01:43:32;7.43;;;4.35;;
77362;SDS011;66428;47.322;9.432;2023-06-24T01:46:02;7.97;;;4.38;;
77362;SDS011;66428;47.322;9.432;2023-06-24T01:48:34;6.82;;;4.47;;
77362;SDS011;66428;47.322;9.432;2023-06-24T01:51:03;5.82;;;4.00;;
77362;SDS011;66428;47.322;9.432;2023-06-24T01:53:34;7.63;;;4.15;;
77362;SDS011;66428;47.322;9.432;2023-06-24T01:56:02;5.90;;;4.32;;
77362;SDS011;66428;47.322;9.432;2023-06-24T01:58:31;6.32;;;4.53;;
77362;SDS011;66428;47.322;9.432;2023-06-24T02:01:01;4.90;;;3.58;;
77362;SDS011;66428;47.322;9.432;2023-06-24T02:03:29;7.85;;;4.35;;
77362;SDS011;66428;47.322;9.432;2023-06-24T02:06:00;5.95;;;4.03;;
77362;SDS011;66428;47.322;9.432;2023-06-24T02:08:29;5.80;;;3.95;;
77362;SDS011;66428;47.322;9.432;2023-06-24T02:10:57;6.22;;;3.95;;
77362;SDS011;66428;47.322;9.432;2023-06-24T02:13:26;7.18;;;4.03;;
77362;SDS011;66428;47.322;9.432;2023-06-24T02:15:54;6.78;;;4.05;;
77362;SDS011;66428;47.322;9.432;2023-06-24T02:18:22;6.40;;;4.10;;
77362;SDS011;66428;47.322;9.432;2023-06-24T02:20:50;5.50;;;3.97;;
77362;SDS011;66428;47.322;9.432;2023-06-24T02:23:20;6.13;;;4.30;;
77362;SDS011;66428;47.322;9.432;2023-06-24T02:25:49;6.72;;;4.38;;
77362;SDS011;66428;47.322;9.432;2023-06-24T02:28:17;6.15;;;4.07;;
77362;SDS011;66428;47.322;9.432;2023-06-24T02:30:47;6.85;;;4.82;;
77362;SDS011;66428;47.322;9.432;2023-06-24T02:33:15;8.80;;;4.65;;
77362;SDS011;66428;47.322;9.432;2023-06-24T02:35:44;7.97;;;4.05;;
77362;SDS011;66428;47.322;9.432;2023-06-24T02:38:12;6.47;;;4.30;;
77362;SDS011;66428;47.322;9.432;2023-06-24T02:43:15;6.40;;;4.22;;
77362;SDS011;66428;47.322;9.432;2023-06-24T02:45:42;6.40;;;3.80;;
77362;SDS011;66428;47.322;9.432;2023-06-24T02:48:11;6.18;;;4.53;;
77362;SDS011;66428;47.322;9.432;2023-06-24T02:50:39;6.15;;;3.88;;
77362;SDS011;66428;47.322;9.432;2023-06-24T02:53:10;7.22;;;3.90;;
77362;SDS011;66428;47.322;9.432;2023-06-24T02:55:38;7.18;;;4.00;;
77362;SDS011;66428;47.322;9.432;2023-06-24T02:58:09;5.53;;;3.92;;
77362;SDS011;66428;47.322;9.432;2023-06-24T03:00:38;8.00;;;4.63;;
77362;SDS011;66428;47.322;9.432;2023-06-24T03:03:09;6.40;;;4.25;;
77362;SDS011;66428;47.322;9.432;2023-06-24T03:05:43;6.30;;;4.38;;
77362;SDS011;66428;47.322;9.432;2023-06-24T03:08:23;6.40;;;4.40;;
77362;SDS011;66428;47.322;9.432;2023-06-24T03:10:59;7.40;;;4.35;;
77362;SDS011;66428;47.322;9.432;2023-06-24T03:13:29;6.72;;;3.83;;
77362;SDS011;66428;47.322;9.432;2023-06-24T03:16:27;6.50;;;4.72;;
77362;SDS011;66428;47.322;9.432;2023-06-24T03:19:15;8.50;;;4.50;;
77362;SDS011;66428;47.322;9.432;2023-06-24T03:21:44;6.22;;;3.88;;
77362;SDS011;66428;47.322;9.432;2023-06-24T03:24:14;6.32;;;4.47;;
77362;SDS011;66428;47.322;9.432;2023-06-24T03:26:46;6.10;;;4.30;;
77362;SDS011;66428;47.322;9.432;2023-06-24T03:29:14;6.47;;;4.63;;
77362;SDS011;66428;47.322;9.432;2023-06-24T03:32:00;6.97;;;3.75;;
77362;SDS011;66428;47.322;9.432;2023-06-24T03:34:28;6.80;;;4.70;;
77362;SDS011;66428;47.322;9.432;2023-06-24T03:36:55;9.23;;;4.13;;
77362;SDS011;66428;47.322;9.432;2023-06-24T03:39:24;6.22;;;3.97;;
77362;SDS011;66428;47.322;9.432;2023-06-24T03:41:55;6.60;;;4.38;;
77362;SDS011;66428;47.322;9.432;2023-06-24T03:44:23;7.90;;;4.65;;
77362;SDS011;66428;47.322;9.432;2023-06-24T03:46:51;8.25;;;4.38;;
77362;SDS011;66428;47.322;9.432;2023-06-24T03:49:21;6.03;;;4.38;;
77362;SDS011;66428;47.322;9.432;2023-06-24T03:51:48;6.18;;;4.13;;
77362;SDS011;66428;47.322;9.432;2023-06-24T03:54:16;6.63;;;4.55;;
77362;SDS011;66428;47.322;9.432;2023-06-24T03:56:44;6.10;;;4.05;;
77362;SDS011;66428;47.322;9.432;2023-06-24T03:59:12;6.22;;;4.03;;
77362;SDS011;66428;47.322;9.432;2023-06-24T04:01:40;6.18;;;4.20;;
77362;SDS011;66428;47.322;9.432;2023-06-24T04:04:10;6.32;;;3.92;;
77362;SDS011;66428;47.322;9.432;2023-06-24T04:06:39;7.00;;;4.38;;
77362;SDS011;66428;47.322;9.432;2023-06-24T04:09:07;6.60;;;4.50;;
77362;SDS011;66428;47.322;9.432;2023-06-24T04:11:36;6.75;;;4.30;;
77362;SDS011;66428;47.322;9.432;2023-06-24T04:14:04;7.40;;;4.45;;
77362;SDS011;66428;47.322;9.432;2023-06-24T04:16:35;6.25;;;4.20;;
77362;SDS011;66428;47.322;9.432;2023-06-24T04:19:03;6.82;;;4.07;;
77362;SDS011;66428;47.322;9.432;2023-06-24T04:21:31;6.93;;;4.18;;
77362;SDS011;66428;47.322;9.432;2023-06-24T04:24:00;6.05;;;4.22;;
77362;SDS011;66428;47.322;9.432;2023-06-24T04:26:28;7.32;;;4.25;;
77362;SDS011;66428;47.322;9.432;2023-06-24T04:28:56;5.82;;;4.25;;
77362;SDS011;66428;47.322;9.432;2023-06-24T04:31:24;7.85;;;4.50;;
77362;SDS011;66428;47.322;9.432;2023-06-24T04:33:52;6.20;;;4.75;;
77362;SDS011;66428;47.322;9.432;2023-06-24T04:36:22;7.07;;;4.40;;
77362;SDS011;66428;47.322;9.432;2023-06-24T04:38:50;6.82;;;4.38;;
77362;SDS011;66428;47.322;9.432;2023-06-24T04:41:21;5.90;;;4.03;;
77362;SDS011;66428;47.322;9.432;2023-06-24T04:43:49;6.35;;;4.45;;
77362;SDS011;66428;47.322;9.432;2023-06-24T04:46:17;7.50;;;5.90;;
77362;SDS011;66428;47.322;9.432;2023-06-24T04:48:45;8.57;;;5.30;;
77362;SDS011;66428;47.322;9.432;2023-06-24T04:51:15;6.80;;;4.85;;
77362;SDS011;66428;47.322;9.432;2023-06-24T04:53:45;6.45;;;4.88;;
77362;SDS011;66428;47.322;9.432;2023-06-24T04:56:15;7.75;;;4.80;;
77362;SDS011;66428;47.322;9.432;2023-06-24T04:58:44;8.25;;;5.18;;
77362;SDS011;66428;47.322;9.432;2023-06-24T05:01:11;6.55;;;4.55;;
77362;SDS011;66428;47.322;9.432;2023-06-24T05:03:39;7.25;;;4.65;;
77362;SDS011;66428;47.322;9.432;2023-06-24T05:06:07;5.97;;;4.38;;
77362;SDS011;66428;47.322;9.432;2023-06-24T05:08:37;7.93;;;5.07;;
77362;SDS011;66428;47.322;9.432;2023-06-24T05:11:07;7.18;;;4.78;;
77362;SDS011;66428;47.322;9.432;2023-06-24T05:13:34;9.13;;;4.68;;
77362;SDS011;66428;47.322;9.432;2023-06-24T05:16:04;8.27;;;4.53;;
77362;SDS011;66428;47.322;9.432;2023-06-24T05:18:32;7.78;;;4.80;;
77362;SDS011;66428;47.322;9.432;2023-06-24T05:21:00;6.47;;;4.47;;
77362;SDS011;66428;47.322;9.432;2023-06-24T05:23:27;6.32;;;4.32;;
77362;SDS011;66428;47.322;9.432;2023-06-24T05:25:55;6.47;;;4.68;;
77362;SDS011;66428;47.322;9.432;2023-06-24T05:28:25;6.45;;;4.68;;
77362;SDS011;66428;47.322;9.432;2023-06-24T05:30:53;7.18;;;5.00;;
77362;SDS011;66428;47.322;9.432;2023-06-24T05:33:24;5.78;;;4.10;;
77362;SDS011;66428;47.322;9.432;2023-06-24T05:35:52;7.22;;;4.85;;
77362;SDS011;66428;47.322;9.432;2023-06-24T05:38:20;8.60;;;4.60;;
77362;SDS011;66428;47.322;9.432;2023-06-24T05:40:50;6.55;;;5.20;;
77362;SDS011;66428;47.322;9.432;2023-06-24T05:43:17;7.50;;;5.32;;
77362;SDS011;66428;47.322;9.432;2023-06-24T05:45:47;7.78;;;4.97;;
77362;SDS011;66428;47.322;9.432;2023-06-24T05:48:17;7.88;;;5.32;;
77362;SDS011;66428;47.322;9.432;2023-06-24T05:50:48;7.47;;;5.03;;
77362;SDS011;66428;47.322;9.432;2023-06-24T05:53:16;8.50;;;5.35;;
77362;SDS011;66428;47.322;9.432;2023-06-24T05:55:46;7.50;;;4.55;;
77362;SDS011;66428;47.322;9.432;2023-06-24T05:58:14;9.95;;;5.88;;
77362;SDS011;66428;47.322;9.432;2023-06-24T06:00:44;7.15;;;4.97;;
77362;SDS011;66428;47.322;9.432;2023-06-24T06:03:12;7.60;;;5.72;;
77362;SDS011;66428;47.322;9.432;2023-06-24T06:05:42;7.68;;;5.18;;
77362;SDS011;66428;47.322;9.432;2023-06-24T06:08:11;7.00;;;4.75;;
77362;SDS011;66428;47.322;9.432;2023-06-24T06:10:39;7.80;;;5.60;;
77362;SDS011;66428;47.322;9.432;2023-06-24T06:13:06;10.07;;;6.00;;
77362;SDS011;66428;47.322;9.432;2023-06-24T06:15:34;9.07;;;5.60;;
77362;SDS011;66428;47.322;9.432;2023-06-24T06:18:02;7.90;;;5.32;;
77362;SDS011;66428;47.322;9.432;2023-06-24T06:20:30;7.78;;;5.53;;
77362;SDS011;66428;47.322;9.432;2023-06-24T06:22:58;8.63;;;5.47;;
77362;SDS011;66428;47.322;9.432;2023-06-24T06:25:27;9.68;;;5.72;;
77362;SDS011;66428;47.322;9.432;2023-06-24T06:27:55;9.02;;;5.65;;
77362;SDS011;66428;47.322;9.432;2023-06-24T06:30:22;8.93;;;6.57;;
77362;SDS011;66428;47.322;9.432;2023-06-24T06:32:50;10.82;;;7.43;;
77362;SDS011;66428;47.322;9.432;2023-06-24T06:35:18;9.13;;;5.82;;
77362;SDS011;66428;47.322;9.432;2023-06-24T06:37:45;8.18;;;5.80;;
77362;SDS011;66428;47.322;9.432;2023-06-24T06:40:23;8.40;;;5.43;;
77362;SDS011;66428;47.322;9.432;2023-06-24T06:42:52;10.60;;;5.28;;
77362;SDS011;66428;47.322;9.432;2023-06-24T06:45:21;7.75;;;5.47;;
77362;SDS011;66428;47.322;9.432;2023-06-24T06:47:51;9.13;;;5.38;;
77362;SDS011;66428;47.322;9.432;2023-06-24T06:50:19;9.00;;;6.18;;
77362;SDS011;66428;47.322;9.432;2023-06-24T06:52:49;8.85;;;6.82;;
77362;SDS011;66428;47.322;9.432;2023-06-24T06:55:17;8.73;;;6.00;;
77362;SDS011;66428;47.322;9.432;2023-06-24T06:57:45;8.38;;;5.72;;
77362;SDS011;66428;47.322;9.432;2023-06-24T07:00:15;8.27;;;5.70;;
77362;SDS011;66428;47.322;9.432;2023-06-24T07:02:43;7.68;;;5.80;;
77362;SDS011;66428;47.322;9.432;2023-06-24T07:05:12;7.97;;;5.15;;
77362;SDS011;66428;47.322;9.432;2023-06-24T07:07:40;8.65;;;5.10;;
77362;SDS011;66428;47.322;9.432;2023-06-24T07:10:10;8.35;;;5.18;;
77362;SDS011;66428;47.322;9.432;2023-06-24T07:12:38;8.45;;;5.18;;
77362;SDS011;66428;47.322;9.432;2023-06-24T07:15:06;10.05;;;5.63;;
77362;SDS011;66428;47.322;9.432;2023-06-24T07:17:39;7.30;;;4.95;;
77362;SDS011;66428;47.322;9.432;2023-06-24T07:20:07;7.97;;;4.95;;
77362;SDS011;66428;47.322;9.432;2023-06-24T07:22:37;7.97;;;4.72;;
77362;SDS011;66428;47.322;9.432;2023-06-24T07:25:05;8.65;;;5.13;;
77362;SDS011;66428;47.322;9.432;2023-06-24T07:27:32;8.60;;;5.25;;
77362;SDS011;66428;47.322;9.432;2023-06-24T07:30:00;9.10;;;5.68;;
77362;SDS011;66428;47.322;9.432;2023-06-24T07:32:28;7.90;;;5.50;;
77362;SDS011;66428;47.322;9.432;2023-06-24T07:34:57;7.20;;;5.18;;
77362;SDS011;66428;47.322;9.432;2023-06-24T07:37:25;6.45;;;4.40;;
77362;SDS011;66428;47.322;9.432;2023-06-24T07:39:53;7.75;;;4.53;;
77362;SDS011;66428;47.322;9.432;2023-06-24T07:42:20;7.60;;;5.05;;
77362;SDS011;66428;47.322;9.432;2023-06-24T07:44:48;6.65;;;4.63;;
77362;SDS011;66428;47.322;9.432;2023-06-24T07:47:18;6.57;;;5.13;;
77362;SDS011;66428;47.322;9.432;2023-06-24T07:49:46;5.90;;;4.18;;
77362;SDS011;66428;47.322;9.432;2023-06-24T07:52:15;5.35;;;4.03;;
77362;SDS011;66428;47.322;9.432;2023-06-24T07:54:43;5.65;;;3.90;;
77362;SDS011;66428;47.322;9.432;2023-06-24T07:57:10;6.97;;;4.70;;
77362;SDS011;66428;47.322;9.432;2023-06-24T07:59:38;6.97;;;4.60;;
77362;SDS011;66428;47.322;9.432;2023-06-24T08:02:06;7.05;;;5.03;;
77362;SDS011;66428;47.322;9.432;2023-06-24T08:04:34;6.75;;;4.93;;
77362;SDS011;66428;47.322;9.432;2023-06-24T08:07:02;5.35;;;3.90;;
77362;SDS011;66428;47.322;9.432;2023-06-24T08:09:31;6.40;;;4.50;;
77362;SDS011;66428;47.322;9.432;2023-06-24T08:11:59;7.82;;;4.32;;
77362;SDS011;66428;47.322;9.432;2023-06-24T08:14:26;6.90;;;4.30;;
77362;SDS011;66428;47.322;9.432;2023-06-24T08:16:54;5.93;;;4.22;;
77362;SDS011;66428;47.322;9.432;2023-06-24T08:19:22;8.52;;;4.43;;
77362;SDS011;66428;47.322;9.432;2023-06-24T08:21:50;6.63;;;4.68;;
77362;SDS011;66428;47.322;9.432;2023-06-24T08:24:17;5.68;;;4.22;;
77362;SDS011;66428;47.322;9.432;2023-06-24T08:26:46;5.63;;;4.43;;
77362;SDS011;66428;47.322;9.432;2023-06-24T08:29:14;7.28;;;4.38;;
77362;SDS011;66428;47.322;9.432;2023-06-24T08:31:42;7.43;;;3.97;;
77362;SDS011;66428;47.322;9.432;2023-06-24T08:34:09;6.18;;;4.10;;
77362;SDS011;66428;47.322;9.432;2023-06-24T08:36:37;8.20;;;4.47;;
77362;SDS011;66428;47.322;9.432;2023-06-24T08:39:05;5.82;;;3.75;;
77362;SDS011;66428;47.322;9.432;2023-06-24T08:41:33;7.15;;;4.00;;
77362;SDS011;66428;47.322;9.432;2023-06-24T08:44:02;6.82;;;4.07;;
77362;SDS011;66428;47.322;9.432;2023-06-24T08:46:29;5.13;;;4.32;;
77362;SDS011;66428;47.322;9.432;2023-06-24T08:49:02;5.57;;;3.60;;
77362;SDS011;66428;47.322;9.432;2023-06-24T08:51:31;5.22;;;3.55;;
77362;SDS011;66428;47.322;9.432;2023-06-24T08:54:02;5.90;;;3.78;;
77362;SDS011;66428;47.322;9.432;2023-06-24T08:56:30;6.40;;;3.80;;
77362;SDS011;66428;47.322;9.432;2023-06-24T08:58:58;5.80;;;3.90;;
77362;SDS011;66428;47.322;9.432;2023-06-24T09:01:29;5.30;;;3.63;;
77362;SDS011;66428;47.322;9.432;2023-06-24T09:03:57;6.72;;;4.40;;
77362;SDS011;66428;47.322;9.432;2023-06-24T09:06:27;6.28;;;4.70;;
77362;SDS011;66428;47.322;9.432;2023-06-24T09:08:55;5.43;;;3.97;;
77362;SDS011;66428;47.322;9.432;2023-06-24T09:11:23;5.43;;;3.42;;
77362;SDS011;66428;47.322;9.432;2023-06-24T09:13:54;6.60;;;4.32;;
77362;SDS011;66428;47.322;9.432;2023-06-24T09:16:23;5.45;;;4.05;;
77362;SDS011;66428;47.322;9.432;2023-06-24T09:18:52;6.80;;;5.22;;
77362;SDS011;66428;47.322;9.432;2023-06-24T09:21:23;5.82;;;3.88;;
77362;SDS011;66428;47.322;9.432;2023-06-24T09:23:52;11.02;;;4.47;;
77362;SDS011;66428;47.322;9.432;2023-06-24T09:26:22;6.53;;;4.63;;
77362;SDS011;66428;47.322;9.432;2023-06-24T09:28:50;5.90;;;4.32;;
77362;SDS011;66428;47.322;9.432;2023-06-24T09:31:20;6.72;;;4.78;;
77362;SDS011;66428;47.322;9.432;2023-06-24T09:33:56;7.50;;;4.55;;
77362;SDS011;66428;47.322;9.432;2023-06-24T09:36:23;5.70;;;4.13;;
77362;SDS011;66428;47.322;9.432;2023-06-24T09:38:54;6.72;;;4.68;;
77362;SDS011;66428;47.322;9.432;2023-06-24T09:41:26;7.78;;;3.60;;
77362;SDS011;66428;47.322;9.432;2023-06-24T09:43:54;5.95;;;4.38;;
77362;SDS011;66428;47.322;9.432;2023-06-24T09:46:25;5.97;;;3.80;;
77362;SDS011;66428;47.322;9.432;2023-06-24T09:48:55;5.53;;;3.30;;
77362;SDS011;66428;47.322;9.432;2023-06-24T09:51:23;5.13;;;3.58;;
77362;SDS011;66428;47.322;9.432;2023-06-24T09:53:51;5.03;;;3.95;;
77362;SDS011;66428;47.322;9.432;2023-06-24T09:56:20;5.68;;;4.40;;
77362;SDS011;66428;47.322;9.432;2023-06-24T09:58:47;6.95;;;4.05;;
77362;SDS011;66428;47.322;9.432;2023-06-24T10:01:15;6.85;;;3.97;;
77362;SDS011;66428;47.322;9.432;2023-06-24T10:03:46;4.93;;;3.47;;
77362;SDS011;66428;47.322;9.432;2023-06-24T10:06:15;6.18;;;4.28;;
77362;SDS011;66428;47.322;9.432;2023-06-24T10:08:43;5.97;;;4.22;;
77362;SDS011;66428;47.322;9.432;2023-06-24T10:11:13;5.65;;;3.83;;
77362;SDS011;66428;47.322;9.432;2023-06-24T10:13:41;6.32;;;4.63;;
77362;SDS011;66428;47.322;9.432;2023-06-24T10:16:08;7.00;;;4.88;;
77362;SDS011;66428;47.322;9.432;2023-06-24T10:18:39;6.70;;;3.95;;
77362;SDS011;66428;47.322;9.432;2023-06-24T10:21:10;7.45;;;4.72;;
77362;SDS011;66428;47.322;9.432;2023-06-24T10:23:40;8.00;;;4.82;;
77362;SDS011;66428;47.322;9.432;2023-06-24T10:26:09;5.25;;;3.75;;
77362;SDS011;66428;47.322;9.432;2023-06-24T10:34:16;5.57;;;4.25;;
77362;SDS011;66428;47.322;9.432;2023-06-24T10:36:52;5.45;;;4.30;;
77362;SDS011;66428;47.322;9.432;2023-06-24T10:39:35;5.35;;;3.72;;
77362;SDS011;66428;47.322;9.432;2023-06-24T10:44:50;5.57;;;3.00;;
77362;SDS011;66428;47.322;9.432;2023-06-24T10:47:18;6.28;;;3.50;;
77362;SDS011;66428;47.322;9.432;2023-06-24T10:49:46;5.78;;;3.58;;
77362;SDS011;66428;47.322;9.432;2023-06-24T10:52:13;6.38;;;4.00;;
77362;SDS011;66428;47.322;9.432;2023-06-24T10:54:45;5.40;;;3.70;;
77362;SDS011;66428;47.322;9.432;2023-06-24T10:57:13;6.55;;;4.05;;
77362;SDS011;66428;47.322;9.432;2023-06-24T10:59:41;6.97;;;3.60;;
77362;SDS011;66428;47.322;9.432;2023-06-24T11:02:09;7.18;;;3.25;;
77362;SDS011;66428;47.322;9.432;2023-06-24T11:04:42;4.47;;;3.38;;
77362;SDS011;66428;47.322;9.432;2023-06-24T11:07:10;6.18;;;3.60;;
77362;SDS011;66428;47.322;9.432;2023-06-24T11:09:39;4.55;;;3.55;;
77362;SDS011;66428;47.322;9.432;2023-06-24T11:12:11;5.15;;;3.63;;
77362;SDS011;66428;47.322;9.432;2023-06-24T11:14:39;5.10;;;3.38;;
77362;SDS011;66428;47.322;9.432;2023-06-24T11:17:07;5.65;;;3.33;;
77362;SDS011;66428;47.322;9.432;2023-06-24T11:19:36;5.30;;;3.17;;
77362;SDS011;66428;47.322;9.432;2023-06-24T11:22:06;5.38;;;3.55;;
77362;SDS011;66428;47.322;9.432;2023-06-24T11:24:34;6.18;;;3.65;;
77362;SDS011;66428;47.322;9.432;2023-06-24T11:27:04;5.00;;;3.40;;
77362;SDS011;66428;47.322;9.432;2023-06-24T11:29:34;5.63;;;3.30;;
77362;SDS011;66428;47.322;9.432;2023-06-24T11:32:02;4.90;;;3.35;;
77362;SDS011;66428;47.322;9.432;2023-06-24T11:34:32;4.65;;;2.97;;
77362;SDS011;66428;47.322;9.432;2023-06-24T11:37:08;5.18;;;3.15;;
77362;SDS011;66428;47.322;9.432;2023-06-24T11:39:36;4.57;;;3.20;;
77362;SDS011;66428;47.322;9.432;2023-06-24T11:42:05;4.90;;;3.55;;
77362;SDS011;66428;47.322;9.432;2023-06-24T11:44:34;5.60;;;3.50;;
77362;SDS011;66428;47.322;9.432;2023-06-24T11:47:05;5.32;;;3.47;;
77362;SDS011;66428;47.322;9.432;2023-06-24T11:49:47;4.85;;;3.38;;
77362;SDS011;66428;47.322;9.432;2023-06-24T11:52:15;4.38;;;3.30;;
77362;SDS011;66428;47.322;9.432;2023-06-24T11:54:45;8.20;;;3.95;;
77362;SDS011;66428;47.322;9.432;2023-06-24T11:57:15;7.10;;;3.45;;
77362;SDS011;66428;47.322;9.432;2023-06-24T11:59:44;5.07;;;3.05;;
77362;SDS011;66428;47.322;9.432;2023-06-24T12:02:14;5.55;;;3.45;;
77362;SDS011;66428;47.322;9.432;2023-06-24T12:04:44;7.60;;;4.10;;
77362;SDS011;66428;47.322;9.432;2023-06-24T12:07:20;8.07;;;3.03;;
77362;SDS011;66428;47.322;9.432;2023-06-24T12:09:48;5.03;;;2.92;;
77362;SDS011;66428;47.322;9.432;2023-06-24T12:12:16;5.10;;;3.58;;
77362;SDS011;66428;47.322;9.432;2023-06-24T12:14:47;5.72;;;3.47;;
77362;SDS011;66428;47.322;9.432;2023-06-24T12:17:18;4.72;;;3.47;;
77362;SDS011;66428;47.322;9.432;2023-06-24T12:19:56;4.97;;;3.80;;
77362;SDS011;66428;47.322;9.432;2023-06-24T12:22:25;5.65;;;3.60;;
77362;SDS011;66428;47.322;9.432;2023-06-24T12:24:53;4.47;;;3.40;;
77362;SDS011;66428;47.322;9.432;2023-06-24T12:27:21;5.07;;;3.58;;
77362;SDS011;66428;47.322;9.432;2023-06-24T12:29:50;4.18;;;3.33;;
77362;SDS011;66428;47.322;9.432;2023-06-24T12:32:20;4.70;;;3.05;;
77362;SDS011;66428;47.322;9.432;2023-06-24T12:34:48;6.15;;;4.25;;
77362;SDS011;66428;47.322;9.432;2023-06-24T12:37:15;5.13;;;2.97;;
77362;SDS011;66428;47.322;9.432;2023-06-24T12:39:44;4.45;;;3.38;;
77362;SDS011;66428;47.322;9.432;2023-06-24T12:42:12;5.80;;;3.83;;
77362;SDS011;66428;47.322;9.432;2023-06-24T12:44:39;6.20;;;3.58;;
77362;SDS011;66428;47.322;9.432;2023-06-24T12:47:08;6.25;;;3.80;;
77362;SDS011;66428;47.322;9.432;2023-06-24T12:49:36;5.53;;;3.88;;
77362;SDS011;66428;47.322;9.432;2023-06-24T12:52:04;4.57;;;3.28;;
77362;SDS011;66428;47.322;9.432;2023-06-24T12:54:32;4.85;;;3.15;;
77362;SDS011;66428;47.322;9.432;2023-06-24T12:57:00;4.93;;;3.53;;
77362;SDS011;66428;47.322;9.432;2023-06-24T12:59:39;5.85;;;3.75;;
77362;SDS011;66428;47.322;9.432;2023-06-24T13:02:08;4.82;;;3.33;;
77362;SDS011;66428;47.322;9.432;2023-06-24T13:04:38;5.68;;;3.47;;
77362;SDS011;66428;47.322;9.432;2023-06-24T13:07:06;5.45;;;3.22;;
77362;SDS011;66428;47.322;9.432;2023-06-24T13:09:36;5.28;;;3.60;;
77362;SDS011;66428;47.322;9.432;2023-06-24T13:12:07;5.03;;;3.58;;
77362;SDS011;66428;47.322;9.432;2023-06-24T13:14:35;4.65;;;3.30;;
77362;SDS011;66428;47.322;9.432;2023-06-24T13:17:05;5.10;;;3.70;;
77362;SDS011;66428;47.322;9.432;2023-06-24T13:19:34;4.82;;;3.10;;
77362;SDS011;66428;47.322;9.432;2023-06-24T13:22:02;5.60;;;4.20;;
77362;SDS011;66428;47.322;9.432;2023-06-24T13:24:30;4.22;;;3.08;;
77362;SDS011;66428;47.322;9.432;2023-06-24T13:27:00;4.32;;;3.33;;
77362;SDS011;66428;47.322;9.432;2023-06-24T13:29:27;5.75;;;3.13;;
77362;SDS011;66428;47.322;9.432;2023-06-24T13:31:55;4.70;;;3.90;;
77362;SDS011;66428;47.322;9.432;2023-06-24T13:34:23;6.90;;;3.92;;
77362;SDS011;66428;47.322;9.432;2023-06-24T13:36:52;5.07;;;3.45;;
77362;SDS011;66428;47.322;9.432;2023-06-24T13:39:20;4.93;;;3.50;;
77362;SDS011;66428;47.322;9.432;2023-06-24T13:41:52;5.63;;;3.13;;
77362;SDS011;66428;47.322;9.432;2023-06-24T13:44:22;4.82;;;2.95;;
77362;SDS011;66428;47.322;9.432;2023-06-24T13:46:50;5.60;;;3.67;;
77362;SDS011;66428;47.322;9.432;2023-06-24T13:49:22;4.40;;;3.28;;
77362;SDS011;66428;47.322;9.432;2023-06-24T13:51:53;4.93;;;3.63;;
77362;SDS011;66428;47.322;9.432;2023-06-24T13:54:21;4.95;;;3.30;;
77362;SDS011;66428;47.322;9.432;2023-06-24T13:56:51;7.60;;;3.80;;
77362;SDS011;66428;47.322;9.432;2023-06-24T13:59:21;4.47;;;3.33;;
77362;SDS011;66428;47.322;9.432;2023-06-24T14:01:49;4.90;;;3.55;;
77362;SDS011;66428;47.322;9.432;2023-06-24T14:04:17;4.10;;;3.33;;
77362;SDS011;66428;47.322;9.432;2023-06-24T14:06:44;6.13;;;3.92;;
77362;SDS011;66428;47.322;9.432;2023-06-24T14:09:17;4.90;;;3.75;;
77362;SDS011;66428;47.322;9.432;2023-06-24T14:11:44;5.20;;;3.58;;
77362;SDS011;66428;47.322;9.432;2023-06-24T14:14:14;5.40;;;3.25;;
77362;SDS011;66428;47.322;9.432;2023-06-24T14:16:42;5.85;;;3.80;;
77362;SDS011;66428;47.322;9.432;2023-06-24T14:19:10;4.60;;;3.42;;
77362;SDS011;66428;47.322;9.432;2023-06-24T14:21:38;5.72;;;3.30;;
77362;SDS011;66428;47.322;9.432;2023-06-24T14:24:08;5.82;;;4.00;;
77362;SDS011;66428;47.322;9.432;2023-06-24T14:26:43;4.97;;;3.58;;
77362;SDS011;66428;47.322;9.432;2023-06-24T14:29:15;4.75;;;3.38;;
77362;SDS011;66428;47.322;9.432;2023-06-24T14:31:43;6.25;;;3.95;;
77362;SDS011;66428;47.322;9.432;2023-06-24T14:34:11;5.32;;;3.28;;
77362;SDS011;66428;47.322;9.432;2023-06-24T14:36:41;7.25;;;3.33;;
77362;SDS011;66428;47.322;9.432;2023-06-24T14:39:13;4.55;;;3.40;;
77362;SDS011;66428;47.322;9.432;2023-06-24T14:41:41;6.55;;;3.50;;
77362;SDS011;66428;47.322;9.432;2023-06-24T14:44:13;4.57;;;3.30;;
77362;SDS011;66428;47.322;9.432;2023-06-24T14:46:40;5.22;;;3.22;;
77362;SDS011;66428;47.322;9.432;2023-06-24T14:49:08;7.03;;;3.90;;
77362;SDS011;66428;47.322;9.432;2023-06-24T14:51:38;5.57;;;3.63;;
77362;SDS011;66428;47.322;9.432;2023-06-24T14:54:08;4.35;;;3.35;;
77362;SDS011;66428;47.322;9.432;2023-06-24T14:56:36;5.88;;;3.47;;
77362;SDS011;66428;47.322;9.432;2023-06-24T14:59:03;4.95;;;2.90;;
77362;SDS011;66428;47.322;9.432;2023-06-24T15:01:33;5.32;;;3.50;;
77362;SDS011;66428;47.322;9.432;2023-06-24T15:04:02;5.18;;;3.47;;
77362;SDS011;66428;47.322;9.432;2023-06-24T15:06:33;4.78;;;3.38;;
77362;SDS011;66428;47.322;9.432;2023-06-24T15:09:00;4.72;;;3.47;;
77362;SDS011;66428;47.322;9.432;2023-06-24T15:11:30;5.30;;;4.07;;